Home > Products > Valid Products > TAF

000
FTUS43 KLBF 010900 AAC
TAFVTN
TAF AMD
KVTN 010926Z 0109/0206 35017G25KT 2SM -SN BR OVC025
      TEMPO 0109/0111 3/4SM -SN BR
     FM011100 35017G27KT 6SM -SN BR OVC035
     FM011800 33015G22KT P6SM BKN030
     FM012200 33012KT P6SM BKN030
     FM020000 VRB04KT P6SM SKC=



000
FTUS43 KLBF 010800 AAA
TAFLBF
TAF AMD
KLBF 010809Z 0108/0206 35018G28KT 1 1/2SM -SN BR OVC023
     FM010900 35018G28KT 5SM -SN BR OVC025
     FM011200 35018G28KT P6SM OVC025
     FM011500 34018G29KT P6SM BKN025
     FM012300 33011KT P6SM SKC=



000
FTUS43 KLBF 010800 AAB
TAFVTN
TAF AMD
KVTN 010805Z 0108/0206 35017G25KT 2SM -SN BR OVC015
      TEMPO 0108/0110 3/4SM -SN BR
     FM011100 35017G27KT 6SM -SN BR OVC015
     FM011800 33015G22KT P6SM BKN020
     FM012200 33012KT P6SM BKN030
     FM020000 VRB04KT P6SM SKC=



000
FTUS43 KLBF 010600 AAA
TAFVTN
TAF AMD
KVTN 010603Z 0106/0206 36017G25KT 3/4SM -SN BR OVC014
     FM010800 35017G25KT 2SM -SN BR OVC012
     FM010900 35016G25KT 4SM -SN BR OVC012
     FM011100 35017G27KT 6SM -SN BR OVC015
     FM011800 33015G22KT P6SM BKN020
     FM012200 33012KT P6SM BKN030
     FM020000 VRB04KT P6SM SKC=



000
FTUS43 KLBF 010600 AAA
TAFVTN
TAF AMD
KVTN 010603Z 0106/0206 36017G25KT 3/4SM -SN BR OVC014
     FM010800 35017G25KT 2SM -SN BR OVC012
     FM010900 35016G25KT 4SM -SN BR OVC012
     FM011100 35017G27KT 6SM -SN BR OVC015
     FM011800 33015G22KT P6SM BKN020
     FM012200 33012KT P6SM BKN030
     FM020000 VRB04KT P6SM SKC=



000
FTUS43 KLBF 010500 RRA
TAFLBF
TAF
KLBF 010542Z 0106/0206 35018G25KT 2SM -SN BR OVC017
      TEMPO 0106/0108 1SM -SN BR OVC013
     FM010900 35018G25KT 6SM -SN BR OVC017
     FM011500 34018G27KT P6SM BKN025
     FM012300 33011KT P6SM SKC=



000
FTUS43 KLBF 010500 RRA
TAFVTN
TAF
KVTN 010542Z 0106/0206 01014G20KT 2SM -SN BR OVC012
     FM010900 35016G25KT 4SM -SN BR OVC012
     FM011100 35017G27KT 6SM -SN BR OVC015
     FM011800 33015G22KT P6SM BKN020
     FM012200 33012KT P6SM BKN030
     FM020000 VRB04KT P6SM SKC=



000
FTUS43 KLBF 010500 RRA
TAFLBF
TAF
KLBF 010542Z 0106/0206 35018G25KT 2SM -SN BR OVC017
      TEMPO 0106/0108 1SM -SN BR OVC013
     FM010900 35018G25KT 6SM -SN BR OVC017
     FM011500 34018G27KT P6SM BKN025
     FM012300 33011KT P6SM SKC=



000
FTUS43 KLBF 010500 RRA
TAFVTN
TAF
KVTN 010542Z 0106/0206 01014G20KT 2SM -SN BR OVC012
     FM010900 35016G25KT 4SM -SN BR OVC012
     FM011100 35017G27KT 6SM -SN BR OVC015
     FM011800 33015G22KT P6SM BKN020
     FM012200 33012KT P6SM BKN030
     FM020000 VRB04KT P6SM SKC=



000
FTUS43 KLBF 010300 AAB
TAFVTN
TAF AMD
KVTN 010340Z 0104/0124 01014G20KT 2SM -SN BR OVC015
      TEMPO 0104/0106 1/2SM SN FZFG OVC010
     FM010900 35014G21KT 5SM -SN BR OVC018
     FM011100 35015G25KT P6SM OVC015
     FM012100 35015G23KT P6SM OVC030=



000
FTUS43 KLBF 010300 AAB
TAFVTN
TAF AMD
KVTN 010340Z 0104/0124 01014G20KT 2SM -SN BR OVC015
      TEMPO 0104/0106 1/2SM SN FZFG OVC010
     FM010900 35014G21KT 5SM -SN BR OVC018
     FM011100 35015G25KT P6SM OVC015
     FM012100 35015G23KT P6SM OVC030=



000
FTUS43 KLBF 010300 AAB
TAFLBF
TAF AMD
KLBF 010308Z 0103/0124 01018G24KT 2SM -SN BR OVC025
      TEMPO 0103/0105 1/2SM SN FZFG OVC008
     FM010800 35015G23KT 6SM -SN BR OVC015
     FM011100 35018G27KT P6SM OVC015
     FM011600 34018G27KT P6SM OVC025
     FM012100 34018G27KT P6SM OVC040=



000
FTUS43 KLBF 010300 AAB
TAFLBF
TAF AMD
KLBF 010308Z 0103/0124 01018G24KT 2SM -SN BR OVC025
      TEMPO 0103/0105 1/2SM SN FZFG OVC008
     FM010800 35015G23KT 6SM -SN BR OVC015
     FM011100 35018G27KT P6SM OVC015
     FM011600 34018G27KT P6SM OVC025
     FM012100 34018G27KT P6SM OVC040=



000
FTUS43 KLBF 010200 AAA
TAFVTN
TAF AMD
KVTN 010200Z 0102/0124 01014G20KT 2SM -SN BR OVC015
      TEMPO 0102/0104 1SM -SN BR OVC010
     FM010900 35014G21KT 5SM -SN BR OVC018
     FM011100 35015G25KT P6SM OVC015
     FM012100 35015G23KT P6SM OVC030=



000
FTUS43 KLBF 010200 AAA
TAFVTN
TAF AMD
KVTN 010200Z 0102/0124 01014G20KT 2SM -SN BR OVC015
      TEMPO 0102/0104 1SM -SN BR OVC010
     FM010900 35014G21KT 5SM -SN BR OVC018
     FM011100 35015G25KT P6SM OVC015
     FM012100 35015G23KT P6SM OVC030=



000
FTUS43 KLBF 010100 AAA
TAFLBF
TAF AMD
KLBF 010158Z 0102/0124 01018G24KT 2SM -SN BR OVC025
      TEMPO 0103/0105 1SM -SN OVC012
     FM010800 35015G23KT 6SM -SN BR OVC015
     FM011100 35018G27KT P6SM OVC015
     FM011600 34018G27KT P6SM OVC025
     FM012100 34018G27KT P6SM OVC040=



000
FTUS43 KLBF 010100 AAA
TAFLBF
TAF AMD
KLBF 010158Z 0102/0124 01018G24KT 2SM -SN BR OVC025
      TEMPO 0103/0105 1SM -SN OVC012
     FM010800 35015G23KT 6SM -SN BR OVC015
     FM011100 35018G27KT P6SM OVC015
     FM011600 34018G27KT P6SM OVC025
     FM012100 34018G27KT P6SM OVC040=



000
FTUS43 KLBF 010000 AAA
TAFLBF
TAF AMD
KLBF 010011Z 0100/0124 02014G20KT 1SM -SN BR FEW004 SCT010 OVC014
      TEMPO 0100/0102 1/2SM SN FZFG OVC005
     FM010300 35014G20KT 1SM -SN BR OVC008
     FM010800 35015G23KT 6SM -SN BR OVC010
     FM011100 35018G27KT P6SM OVC015
     FM011600 34018G27KT P6SM OVC025
     FM012100 34018G27KT P6SM OVC040=



000
FTUS43 KLBF 010000 AAA
TAFLBF
TAF AMD
KLBF 010011Z 0100/0124 02014G20KT 1SM -SN BR FEW004 SCT010 OVC014
      TEMPO 0100/0102 1/2SM SN FZFG OVC005
     FM010300 35014G20KT 1SM -SN BR OVC008
     FM010800 35015G23KT 6SM -SN BR OVC010
     FM011100 35018G27KT P6SM OVC015
     FM011600 34018G27KT P6SM OVC025
     FM012100 34018G27KT P6SM OVC040=



000
FTUS43 KLBF 312300
TAFLBF
TAF
KLBF 312331Z 0100/0124 04005KT 1SM -SN BR FEW004 SCT010 OVC014
      TEMPO 0100/0102 1/2SM SN FZFG OVC005
     FM010300 35013KT 1SM -SN BR OVC008
     FM010800 35015G23KT 6SM -SN BR OVC010
     FM011100 35016G26KT P6SM OVC015
     FM011600 35015G23KT P6SM OVC025
     FM012100 35015G23KT P6SM OVC040=



000
FTUS43 KLBF 312300
TAFVTN
TAF
KVTN 312331Z 0100/0124 03013KT 1SM -SN BR OVC007
      TEMPO 0101/0105 1/2SM SN FZFG OVC005
     FM011000 35014G21KT 5SM -SN BR OVC012
     FM011100 35015G25KT P6SM OVC015
     FM012100 35015G23KT P6SM OVC030=



000
FTUS43 KLBF 312200 AAB
TAFLBF
TAF AMD
KLBF 312239Z 3123/0118 04003KT 1SM -SN BR SCT006 OVC010
      TEMPO 3123/0103 1/2SM SN FZFG OVC005
     FM010300 35013KT 1SM -SN BR OVC005
     FM010800 35015G23KT 6SM -SN BR OVC010
     FM011100 35016G26KT P6SM OVC015=



000
FTUS43 KLBF 312200 AAC
TAFVTN
TAF AMD
KVTN 312232Z 3123/0118 05014KT 1SM -FZRA BR OVC003
     FM010000 03013KT 1SM -SN BR OVC005
     FM010500 35014G21KT 5SM -SN BR OVC007
     FM010900 35015G25KT P6SM OVC015=



000
FTUS43 KLBF 312100 AAB
TAFVTN
TAF AMD
KVTN 312103Z 3121/0118 05014KT 1SM -SN BR OVC003
     FM010000 03013KT 1SM -SN BR OVC005
     FM010500 35014G21KT 5SM -SN BR OVC007
     FM010900 35015G25KT P6SM OVC015=



000
FTUS43 KLBF 312000 AAA
TAFLBF
TAF AMD
KLBF 312005Z 3120/0118 VRB05KT 3SM -DZSN OVC005
      TEMPO 3121/3124 1SM -SN OVC003
     FM010000 35013KT 3SM -SN BR OVC005
     FM010600 35015G23KT 6SM BR OVC010
     FM011100 35016G26KT P6SM OVC015=



000
FTUS43 KLBF 312000 AAA
TAFVTN
TAF AMD
KVTN 312002Z 3120/0118 05008KT 1SM BR OVC002
      TEMPO 3120/3121 3SM -SN BR OVC003
     FM312100 04010KT 2SM -SN BR OVC005
     FM010000 03013KT 1SM -SN BR OVC005
     FM010500 35014G21KT 5SM -SN BR OVC007
     FM010900 35015G25KT P6SM OVC015=



000
FTUS43 KLBF 311700 RRA
TAFVTN
TAF
KVTN 311741Z 3118/0118 05008KT 2SM BR OVC003
      TEMPO 3118/3120 3/4SM BR OVC002
     FM312100 04010KT 3SM -SN BR OVC005
     FM010000 03013KT 1SM -SN BR OVC005
     FM010500 35014G21KT 5SM -SN BR OVC007
     FM010900 35015G25KT P6SM OVC015=



000
FTUS43 KLBF 311700 RRA
TAFLBF
TAF
KLBF 311741Z 3118/0118 VRB05KT P6SM OVC005
      TEMPO 3121/3124 3SM -SN OVC003
     FM010000 35013KT 5SM -SN BR OVC005
     FM010600 35015G23KT 6SM BR OVC010
     FM011100 35016G26KT P6SM OVC015=



000
FTUS43 KLBF 311300 AAA
TAFLBF
TAF AMD
KLBF 311331Z 3114/0112 12008KT P6SM OVC008
      TEMPO 3114/3118 3SM -SN BR
     FM311800 05005KT 3SM -SN BR OVC007
     FM010400 35013KT 5SM -SN BR OVC007
     FM010600 35015G23KT 6SM BR OVC010
     FM011100 35016G26KT P6SM OVC015=



000
FTUS43 KLBF 311100 RRA
TAFVTN
TAF
KVTN 311141Z 3112/0112 07006KT P6SM OVC200
     FM311500 04006KT P6SM BKN008
     FM311800 05008KT 5SM BR OVC008
     FM312100 04010KT 3SM -SN BR OVC007
     FM312300 03013KT 1SM -SN BR OVC005
     FM010500 35014G21KT 5SM -SN BR OVC007
     FM010900 35015G25KT P6SM OVC015=



000
FTUS43 KLBF 311100 RRA
TAFLBF
TAF
KLBF 311141Z 3112/0112 15008KT P6SM OVC005
      TEMPO 3114/3118 3SM -SN BR
     FM311800 05005KT 3SM -SN BR OVC007
     FM010400 35013KT 5SM -SN BR OVC007
     FM010600 35015G23KT 6SM BR OVC010
     FM011100 35016G26KT P6SM OVC015=



000
FTUS43 KLBF 311000 AAA
TAFLBF
TAF AMD
KLBF 311005Z 3110/0106 14008KT P6SM OVC005
      TEMPO 3114/3118 3SM -SN BR
     FM311800 05005KT 3SM -SN BR OVC007=



000
FTUS43 KLBF 310500 RRA
TAFVTN
TAF
KVTN 310553Z 3106/0106 24005KT P6SM OVC200
     FM311000 02006KT P6SM OVC200
     FM311500 04006KT P6SM BKN008 OVC150
     FM311800 05008KT 5SM BR OVC008
     FM312100 04010KT 3SM -SN BR OVC007=



000
FTUS43 KLBF 310500 RRA
TAFLBF
TAF
KLBF 310553Z 3106/0106 15008KT P6SM OVC012
     FM310800 13004KT P6SM OVC008
      TEMPO 3114/3118 3SM -SN BR
     FM311800 05005KT 3SM -SN BR OVC007=



000
FTUS43 KLBF 310400 AAA
TAFLBF
TAF AMD
KLBF 310445Z 3105/3124 15008KT P6SM OVC015
     FM311200 12004KT P6SM OVC008
      TEMPO 3114/3118 3SM -SN BR
     FM311800 05005KT 3SM -SN BR OVC007=



000
FTUS43 KLBF 302300
TAFVTN
TAF
KVTN 302321Z 3100/3124 24005KT P6SM OVC200
     FM311000 02006KT P6SM OVC200
     FM311500 04006KT P6SM BKN008 OVC150
     FM311800 05008KT 5SM BR OVC008=



000
FTUS43 KLBF 302300
TAFLBF
TAF
KLBF 302321Z 3100/3124 16008KT P6SM SCT060 OVC150
     FM310600 15005KT P6SM OVC050
     FM311200 12004KT P6SM OVC008
      TEMPO 3114/3118 3SM -SN BR
     FM311800 05005KT 3SM -SN BR OVC007=



000
FTUS43 KLBF 301700 RRA
TAFLBF
TAF
KLBF 301741Z 3018/3118 18012G18KT P6SM BKN100 OVC200
     FM302300 14007KT P6SM OVC100
      TEMPO 3108/3112 6SM -RASN BKN050
     FM311200 10005KT 3SM -SN BR BKN035 OVC100=



000
FTUS43 KLBF 301700 RRA
TAFVTN
TAF
KVTN 301741Z 3018/3118 21013G20KT P6SM BKN200
     FM302300 24005KT P6SM SCT100 OVC200
     FM311000 02006KT 5SM BR SCT008 OVC100
     FM311500 04006KT P6SM BKN008 OVC100=



000
FTUS43 KLBF 301100
TAFVTN
TAF
KVTN 301120Z 3012/3112 12004KT P6SM BKN200
     FM301600 21013G20KT P6SM BKN200
     FM302300 24005KT P6SM SCT100 OVC200
     FM311000 02006KT 5SM BR SCT008=



000
FTUS43 KLBF 301100
TAFLBF
TAF
KLBF 301120Z 3012/3112 12006KT P6SM BKN200
     FM301900 18012G18KT P6SM BKN100 OVC200
     FM302300 14007KT P6SM OVC100
     FM310900 10005KT P6SM BKN050 OVC100=



000
FTUS43 KLBF 300500
TAFLBF
TAF
KLBF 300520Z 3006/3106 VRB04KT P6SM SCT250
     FM302000 18012G18KT P6SM SCT070 BKN200
     FM310000 14007KT P6SM BKN060 OVC100=



000
FTUS43 KLBF 300500
TAFVTN
TAF
KVTN 300520Z 3006/3106 VRB04KT P6SM SCT250
     FM301800 21011G17KT P6SM FEW070 BKN250
     FM310000 24005KT P6SM FEW050 BKN200=



000
FTUS43 KLBF 292300
TAFLBF
TAF
KLBF 292320Z 3000/3024 VRB04KT P6SM SCT250
     FM302000 18012G18KT P6SM SCT070 BKN200=



000
FTUS43 KLBF 292300
TAFVTN
TAF
KVTN 292320Z 3000/3024 VRB04KT P6SM SCT250
     FM301800 20012G18KT P6SM FEW070 BKN250=



000
FTUS43 KLBF 292000 AAA
TAFVTN
TAF AMD
KVTN 292000Z 2920/3018 32010KT P6SM SKC
     FM300000 VRB04KT P6SM SCT250
     FM301600 20012KT P6SM SCT250=



000
FTUS43 KLBF 291900 AAA
TAFLBF
TAF AMD
KLBF 291959Z 2920/3018 32010KT P6SM SKC
     FM300000 VRB04KT P6SM SCT250
     FM301600 17012KT P6SM SCT250=



000
FTUS43 KLBF 291700
TAFLBF
TAF
KLBF 291720Z 2918/3018 34012G18KT P6SM SKC
     FM292100 35008KT P6SM SKC
     FM300000 VRB04KT P6SM SCT250
     FM301600 17012KT P6SM SCT250=



000
FTUS43 KLBF 291700
TAFVTN
TAF
KVTN 291720Z 2918/3018 34013G21KT P6SM SKC
     FM292200 32010KT P6SM SKC
     FM300000 VRB04KT P6SM SCT250
     FM301600 20012KT P6SM SCT250=



000
FTUS43 KLBF 291600 AAB
TAFVTN
TAF AMD
KVTN 291627Z 2916/3012 34013G21KT P6SM SKC
     FM292100 32010KT P6SM SCT250
     FM300000 VRB04KT P6SM SCT250=



000
FTUS43 KLBF 291400 AAA
TAFLBF
TAF AMD
KLBF 291445Z 2915/3012 31009KT P6SM SKC
     FM291800 34012KT P6SM SCT250
     FM300000 VRB04KT P6SM SCT250=



000
FTUS43 KLBF 291400 AAA
TAFVTN
TAF AMD
KVTN 291443Z 2915/3012 33013G20KT P6SM BKN028
     FM291700 33012G19KT P6SM SCT035
     FM291800 32010KT P6SM SCT250
     FM300000 VRB04KT P6SM SCT250=



    US Dept of Commerce
    National Oceanic and Atmospheric Administration
    National Weather Service
    1325 East West Highway
    Silver Spring, MD 20910
    Page Author: NWS Internet Services Team
Disclaimer
Information Quality
Credits
Glossary
Privacy Policy
Freedom of Information Act (FOIA)
About Us
Career Opportunities